createdAt,value
2022-09-26T00:01:03.946Z,54.35
2022-09-26T00:04:16.013Z,53.72
2022-09-26T00:07:18.284Z,54.33
2022-09-26T00:10:20.242Z,54.67
2022-09-26T00:13:22.186Z,54.47
2022-09-26T00:16:24.460Z,54.54
2022-09-26T00:19:26.577Z,53.98
2022-09-26T00:22:28.888Z,54.61
2022-09-26T00:25:30.850Z,54.72
2022-09-26T00:28:33.051Z,53.98
2022-09-26T00:31:38.749Z,54.61
2022-09-26T00:34:40.731Z,54.86
2022-09-26T00:37:42.756Z,54.76
2022-09-26T00:40:46.935Z,54.80
2022-09-26T00:43:51.952Z,53.97
2022-09-26T00:46:53.972Z,54.68
2022-09-26T00:50:00.655Z,54.17
2022-09-26T00:53:08.431Z,54.87
2022-09-26T00:56:27.055Z,54.66
2022-09-26T00:59:35.715Z,54.12
2022-09-26T01:02:39.194Z,54.83
2022-09-26T01:05:41.871Z,54.76
2022-09-26T01:08:54.190Z,54.77
2022-09-26T01:11:57.032Z,54.87
2022-09-26T01:14:59.193Z,54.55
2022-09-26T01:18:01.256Z,54.35
2022-09-26T01:21:24.549Z,54.83
2022-09-26T01:24:50.605Z,54.34
2022-09-26T01:27:56.099Z,54.90
2022-09-26T01:31:03.772Z,54.93
2022-09-26T01:34:24.266Z,54.35
2022-09-26T01:37:32.039Z,54.81
2022-09-26T01:41:04.751Z,55.38
2022-09-26T01:44:28.292Z,55.31
2022-09-26T01:47:58.537Z,54.75
2022-09-26T01:51:09.368Z,54.60
2022-09-26T01:54:18.937Z,54.74
2022-09-26T01:57:28.851Z,55.01
2022-09-26T02:00:31.174Z,54.58
2022-09-26T02:03:39.960Z,54.28
2022-09-26T02:07:11.410Z,54.63
2022-09-26T02:10:21.097Z,54.57
2022-09-26T02:13:30.394Z,54.89
2022-09-26T02:16:43.415Z,54.80
2022-09-26T02:19:56.840Z,54.86
2022-09-26T02:23:00.083Z,54.38
2022-09-26T02:26:02.113Z,54.99
2022-09-26T02:29:05.370Z,55.29
2022-09-26T02:32:17.670Z,54.33
2022-09-26T02:35:38.897Z,54.45
2022-09-26T02:38:41.684Z,55.25
2022-09-26T02:42:25.073Z,55.25
2022-09-26T02:45:34.889Z,54.66
2022-09-26T02:49:08.734Z,54.83
2022-09-26T02:52:31.618Z,55.10
2022-09-26T02:56:12.043Z,54.41
2022-09-26T02:59:22.891Z,54.50
2022-09-26T03:02:43.647Z,55.54
2022-09-26T03:05:57.724Z,55.63
2022-09-26T03:09:01.598Z,55.29
2022-09-26T03:12:07.816Z,54.94
2022-09-26T03:15:10.974Z,54.96
2022-09-26T03:18:21.056Z,55.68
2022-09-26T03:21:23.673Z,54.79
2022-09-26T03:24:26.848Z,55.00
2022-09-26T03:27:32.163Z,55.54
2022-09-26T03:30:34.731Z,54.84
2022-09-26T03:33:55.120Z,54.79
2022-09-26T03:36:57.055Z,55.17
2022-09-26T03:39:59.025Z,54.79
2022-09-26T03:43:24.312Z,54.36
2022-09-26T03:46:28.627Z,54.31
2022-09-26T03:49:30.916Z,54.61
2022-09-26T03:52:32.994Z,54.39
2022-09-26T03:55:35.517Z,54.27
2022-09-26T03:58:38.176Z,54.96
2022-09-26T04:01:41.154Z,54.71
2022-09-26T04:04:43.376Z,55.19
2022-09-26T04:07:47.383Z,55.16
2022-09-26T04:10:49.489Z,55.17
2022-09-26T04:13:53.950Z,55.36
2022-09-26T04:16:59.472Z,54.68
2022-09-26T04:20:05.954Z,54.56
2022-09-26T04:23:09.539Z,54.28
2022-09-26T04:26:22.708Z,54.44
2022-09-26T04:29:27.288Z,55.22
2022-09-26T04:32:36.864Z,54.26
2022-09-26T04:35:50.701Z,54.61
2022-09-26T04:38:52.657Z,54.96
2022-09-26T04:41:55.599Z,54.32
2022-09-26T04:44:57.583Z,55.04
2022-09-26T04:47:59.712Z,54.17
2022-09-26T04:51:09.591Z,54.21
2022-09-26T04:54:12.224Z,54.48
2022-09-26T04:57:19.740Z,54.15
2022-09-26T05:00:23.404Z,54.87
2022-09-26T05:03:26.010Z,54.20
2022-09-26T05:06:28.139Z,54.72
2022-09-26T05:09:35.522Z,54.81
2022-09-26T05:12:45.251Z,54.94
2022-09-26T05:15:49.820Z,54.04
2022-09-26T05:18:52.674Z,54.13
2022-09-26T05:21:54.828Z,54.65
2022-09-26T05:25:15.667Z,54.83
2022-09-26T05:28:17.764Z,54.86
2022-09-26T05:31:20.825Z,54.26
2022-09-26T05:34:26.199Z,54.02
2022-09-26T05:37:28.675Z,54.10
2022-09-26T05:40:49.962Z,54.19
2022-09-26T05:43:53.917Z,54.19
2022-09-26T05:46:57.489Z,54.61
2022-09-26T05:50:01.201Z,54.29
2022-09-26T05:53:04.797Z,54.49
2022-09-26T05:56:12.743Z,54.07
2022-09-26T05:59:51.790Z,53.88
2022-09-26T06:03:04.231Z,54.21
2022-09-26T06:06:25.963Z,54.01
2022-09-26T06:09:37.336Z,54.37
2022-09-26T06:13:03.449Z,54.35
2022-09-26T06:16:12.221Z,54.47
2022-09-26T06:19:14.249Z,53.98
2022-09-26T06:22:16.973Z,54.27
2022-09-26T06:25:19.128Z,53.90
2022-09-26T06:28:21.141Z,54.34
2022-09-26T06:31:23.718Z,53.96
2022-09-26T06:35:00.962Z,53.82
2022-09-26T06:38:19.527Z,53.85
2022-09-26T06:41:21.583Z,53.66
2022-09-26T06:44:23.996Z,54.00
2022-09-26T06:47:44.378Z,54.06
2022-09-26T06:51:14.394Z,53.74
2022-09-26T06:54:16.509Z,53.94
2022-09-26T06:57:18.562Z,54.19
2022-09-26T07:00:20.517Z,54.01
2022-09-26T07:03:44.562Z,54.39
2022-09-26T07:07:06.118Z,53.96
2022-09-26T07:10:08.482Z,54.58
2022-09-26T07:13:17.277Z,54.34
2022-09-26T07:16:19.361Z,54.47
2022-09-26T07:19:53.943Z,54.32
2022-09-26T07:23:27.800Z,54.12
2022-09-26T07:26:30.582Z,54.14
2022-09-26T07:29:32.967Z,53.88
2022-09-26T07:32:39.808Z,53.97
2022-09-26T07:36:18.591Z,54.47
2022-09-26T07:39:21.920Z,53.69
2022-09-26T07:42:24.306Z,53.68
2022-09-26T07:45:45.087Z,54.04
2022-09-26T07:49:05.969Z,53.72
2022-09-26T07:52:29.293Z,54.62
2022-09-26T07:56:11.152Z,53.57
2022-09-26T07:59:35.798Z,53.84
2022-09-26T08:03:01.403Z,53.73
2022-09-26T08:06:05.080Z,54.03
2022-09-26T08:09:07.334Z,54.41
2022-09-26T08:12:48.422Z,53.53
2022-09-26T08:16:11.724Z,53.73
2022-09-26T08:19:18.102Z,53.54
2022-09-26T08:22:20.661Z,53.35
2022-09-26T08:25:26.512Z,53.41
2022-09-26T08:28:36.990Z,52.84
2022-09-26T08:31:40.065Z,53.19
2022-09-26T08:34:43.294Z,52.84
2022-09-26T08:38:15.308Z,52.73
2022-09-26T08:41:34.772Z,52.70
2022-09-26T08:45:37.607Z,52.47
2022-09-26T08:49:14.673Z,52.30
2022-09-26T08:52:41.430Z,52.19
2022-09-26T08:55:46.563Z,52.38
2022-09-26T08:58:52.466Z,52.24
2022-09-26T09:02:02.615Z,52.37
2022-09-26T09:05:33.093Z,52.27
2022-09-26T09:08:38.259Z,52.32
2022-09-26T09:12:09.312Z,52.23
2022-09-26T09:15:37.008Z,52.32
2022-09-26T09:18:59.280Z,51.92
2022-09-26T09:22:40.909Z,52.06
2022-09-26T09:29:49.723Z,51.76
2022-09-26T09:33:19.130Z,51.43
2022-09-26T09:36:41.882Z,51.94
2022-09-26T09:40:03.379Z,51.44
2022-09-26T09:43:26.617Z,50.89
2022-09-26T09:46:36.188Z,51.00
2022-09-26T09:49:38.333Z,50.27
2022-09-26T09:52:52.319Z,51.45
2022-09-26T09:56:08.796Z,51.29
2022-09-26T09:59:19.706Z,51.44
2022-09-26T10:03:11.420Z,51.34
2022-09-26T10:06:45.642Z,50.69
2022-09-26T10:09:41.292Z,50.61
2022-09-26T10:13:02.053Z,51.28
2022-09-26T10:16:23.981Z,51.51
2022-09-26T10:19:38.790Z,51.30
2022-09-26T10:22:45.581Z,50.57
2022-09-26T10:26:03.697Z,50.78
2022-09-26T10:29:30.414Z,50.44
2022-09-26T10:32:45.747Z,51.42
2022-09-26T10:36:09.828Z,51.37
2022-09-26T10:39:35.167Z,50.90
2022-09-26T10:42:38.361Z,51.24
2022-09-26T10:45:40.639Z,50.79
2022-09-26T10:49:03.385Z,51.04
2022-09-26T10:52:29.543Z,50.23
2022-09-26T10:55:41.905Z,50.25
2022-09-26T10:58:47.272Z,49.92
2022-09-26T11:01:56.128Z,49.34
2022-09-26T11:05:20.550Z,51.24
2022-09-26T11:08:51.668Z,50.19
2022-09-26T11:12:30.959Z,49.96
2022-09-26T11:15:42.947Z,49.29
2022-09-26T11:19:10.399Z,50.23
2022-09-26T11:22:34.485Z,49.88
2022-09-26T11:26:11.327Z,49.61
2022-09-26T11:29:34.773Z,49.23
2022-09-26T11:32:44.843Z,49.64
2022-09-26T11:36:07.520Z,50.05
2022-09-26T11:39:18.583Z,49.81
2022-09-26T11:42:28.905Z,49.76
2022-09-26T11:45:56.114Z,50.50
2022-09-26T11:49:38.657Z,49.74
2022-09-26T11:53:13.774Z,50.14
2022-09-26T11:56:42.141Z,49.21
2022-09-26T12:00:13.200Z,48.71
2022-09-26T12:03:33.449Z,49.27
2022-09-26T12:07:09.716Z,49.89
2022-09-26T12:10:25.261Z,50.04
2022-09-26T12:13:38.408Z,49.29
2022-09-26T12:17:04.794Z,49.77
2022-09-26T12:20:20.031Z,49.84
2022-09-26T12:23:40.234Z,50.06
2022-09-26T12:27:04.102Z,49.72
2022-09-26T12:30:15.608Z,49.52
2022-09-26T12:33:26.411Z,49.57
2022-09-26T12:36:47.496Z,49.65
2022-09-26T12:39:58.767Z,49.65
2022-09-26T12:43:19.462Z,50.61
2022-09-26T12:46:31.765Z,50.95
2022-09-26T12:49:58.554Z,50.59
2022-09-26T12:53:17.372Z,50.70
2022-09-26T12:56:30.232Z,50.55
2022-09-26T12:59:36.484Z,49.89
2022-09-26T13:03:09.893Z,50.17
2022-09-26T13:06:31.688Z,49.99
2022-09-26T13:09:33.770Z,49.48
2022-09-26T13:12:42.577Z,49.70
2022-09-26T13:16:16.742Z,50.63
2022-09-26T13:19:40.222Z,50.91
2022-09-26T13:22:42.536Z,50.71
2022-09-26T13:25:50.391Z,50.16
2022-09-26T13:29:17.157Z,50.02
2022-09-26T13:32:34.925Z,51.14
2022-09-26T13:35:41.147Z,50.50
2022-09-26T13:38:58.558Z,50.84
2022-09-26T13:42:10.193Z,51.20
2022-09-26T13:45:24.382Z,50.45
2022-09-26T13:48:39.674Z,50.94
2022-09-26T13:52:11.641Z,50.52
2022-09-26T13:55:19.428Z,50.58
2022-09-26T13:58:25.671Z,50.90
2022-09-26T14:01:28.260Z,50.70
2022-09-26T14:04:36.953Z,51.13
2022-09-26T14:07:57.384Z,50.96
2022-09-26T14:11:12.020Z,51.63
2022-09-26T14:14:18.033Z,51.88
2022-09-26T14:17:58.838Z,51.14
2022-09-26T14:21:09.817Z,51.45
2022-09-26T14:24:20.657Z,51.27
2022-09-26T14:27:37.668Z,51.20
2022-09-26T14:30:39.686Z,51.95
2022-09-26T14:33:44.189Z,51.40
2022-09-26T14:36:47.680Z,51.64
2022-09-26T14:40:07.943Z,51.71
2022-09-26T14:43:16.068Z,51.73
2022-09-26T14:46:25.704Z,52.70
2022-09-26T14:49:28.985Z,51.64
2022-09-26T14:52:33.025Z,51.99
2022-09-26T14:55:35.066Z,52.48
2022-09-26T14:58:37.343Z,52.29
2022-09-26T15:01:40.860Z,52.07
2022-09-26T15:04:45.770Z,52.73
2022-09-26T15:07:53.689Z,53.07
2022-09-26T15:11:00.607Z,53.15
2022-09-26T15:14:17.066Z,52.81
2022-09-26T15:17:27.709Z,53.22
2022-09-26T15:20:32.194Z,52.96
2022-09-26T15:23:46.544Z,53.17
2022-09-26T15:26:49.577Z,53.46
2022-09-26T15:29:58.130Z,52.94
2022-09-26T15:33:04.865Z,53.37
2022-09-26T15:36:06.937Z,53.20
2022-09-26T15:39:32.367Z,53.56
2022-09-26T15:42:52.828Z,53.26
2022-09-26T15:46:03.584Z,53.36
2022-09-26T15:49:15.890Z,53.26
2022-09-26T15:52:19.559Z,53.46
2022-09-26T15:56:08.967Z,53.54
2022-09-26T15:59:13.566Z,53.59
2022-09-26T16:02:36.619Z,53.67
2022-09-26T16:05:38.667Z,53.73
2022-09-26T16:08:42.633Z,54.07
2022-09-26T16:11:50.232Z,53.75
2022-09-26T16:15:00.434Z,53.94
2022-09-26T16:18:02.728Z,53.93
2022-09-26T16:21:22.766Z,54.09
2022-09-26T16:24:34.403Z,54.21
2022-09-26T16:27:36.325Z,53.81
2022-09-26T16:30:41.863Z,54.29
2022-09-26T16:33:51.165Z,54.52
2022-09-26T16:36:53.687Z,54.43
2022-09-26T16:39:59.510Z,54.59
2022-09-26T16:43:14.718Z,54.23
2022-09-26T16:46:18.625Z,54.21
2022-09-26T16:49:43.053Z,53.79
2022-09-26T16:52:46.055Z,53.99
2022-09-26T16:55:48.071Z,54.30
2022-09-26T16:58:53.942Z,54.21
2022-09-26T17:01:59.179Z,54.32
2022-09-26T17:05:01.520Z,54.24
2022-09-26T17:08:04.388Z,54.53
2022-09-26T17:11:14.458Z,54.65
2022-09-26T17:14:19.803Z,54.59
2022-09-26T17:17:25.437Z,54.25
2022-09-26T17:20:28.774Z,54.14
2022-09-26T17:23:41.994Z,54.34
2022-09-26T17:26:53.513Z,54.37
2022-09-26T17:30:00.508Z,54.40
2022-09-26T17:33:04.473Z,54.43
2022-09-26T17:36:10.930Z,54.47
2022-09-26T17:39:15.175Z,54.95
2022-09-26T17:42:17.449Z,54.95
2022-09-26T17:45:20.256Z,54.49
2022-09-26T17:48:27.902Z,55.64
2022-09-26T17:51:31.294Z,55.36
2022-09-26T17:54:42.509Z,55.01
2022-09-26T17:57:44.646Z,55.11
2022-09-26T18:00:49.413Z,54.77
2022-09-26T18:03:55.780Z,54.81
2022-09-26T18:07:02.294Z,55.02
2022-09-26T18:10:07.680Z,55.26
2022-09-26T18:13:13.821Z,55.05
2022-09-26T18:16:16.047Z,55.17
2022-09-26T18:19:20.940Z,55.71
2022-09-26T18:22:32.146Z,56.12
2022-09-26T18:25:37.366Z,55.99
2022-09-26T18:28:39.448Z,56.62
2022-09-26T18:31:45.301Z,56.25
2022-09-26T18:34:47.450Z,56.34
2022-09-26T18:37:49.679Z,56.44
2022-09-26T18:40:55.548Z,56.38
2022-09-26T18:44:00.879Z,56.56
2022-09-26T18:47:07.969Z,56.70
2022-09-26T18:50:21.884Z,56.23
2022-09-26T18:53:29.483Z,55.95
2022-09-26T18:56:50.242Z,56.05
2022-09-26T18:59:52.192Z,56.32
2022-09-26T19:02:54.446Z,55.96
2022-09-26T19:06:23.267Z,56.35
2022-09-26T19:09:27.254Z,56.07
2022-09-26T19:12:30.468Z,56.23
2022-09-26T19:15:32.569Z,56.03
2022-09-26T19:18:34.821Z,55.89
2022-09-26T19:21:43.539Z,56.53
2022-09-26T19:24:52.664Z,56.56
2022-09-26T19:27:54.769Z,56.52
2022-09-26T19:30:57.069Z,56.63
2022-09-26T19:33:59.131Z,56.14
2022-09-26T19:37:03.228Z,56.50
2022-09-26T19:40:17.364Z,55.96
2022-09-26T19:43:20.997Z,56.08
2022-09-26T19:46:27.629Z,56.34
2022-09-26T19:49:32.082Z,56.45
2022-09-26T19:52:34.078Z,56.59
2022-09-26T19:55:36.431Z,56.60
2022-09-26T19:58:38.485Z,56.58
2022-09-26T20:01:42.987Z,56.75
2022-09-26T20:04:45.635Z,57.09
2022-09-26T20:07:48.254Z,56.43
2022-09-26T20:10:50.934Z,56.75
2022-09-26T20:14:11.362Z,57.03
2022-09-26T20:17:22.468Z,56.79
2022-09-26T20:20:25.649Z,57.25
2022-09-26T20:23:27.917Z,57.17
2022-09-26T20:26:32.818Z,56.71
2022-09-26T20:29:55.667Z,57.17
2022-09-26T20:32:59.161Z,56.58
2022-09-26T20:36:05.257Z,56.82
2022-09-26T20:39:13.295Z,56.72
2022-09-26T20:42:18.850Z,57.04
2022-09-26T20:45:33.885Z,57.01
2022-09-26T20:48:37.062Z,56.68
2022-09-26T20:51:39.195Z,56.83
2022-09-26T20:54:42.443Z,57.14
2022-09-26T20:57:45.560Z,56.94
2022-09-26T21:00:48.393Z,57.37
2022-09-26T21:03:53.094Z,56.98
2022-09-26T21:06:55.909Z,56.94
2022-09-26T21:09:58.022Z,56.89
2022-09-26T21:13:01.170Z,57.28
2022-09-26T21:16:03.400Z,57.02
2022-09-26T21:19:06.833Z,57.45
2022-09-26T21:22:12.582Z,57.31
2022-09-26T21:25:20.577Z,57.49
2022-09-26T21:28:27.807Z,57.33
2022-09-26T21:31:35.522Z,57.41
2022-09-26T21:34:38.922Z,57.11
2022-09-26T21:37:43.008Z,57.43
2022-09-26T21:40:48.014Z,57.06
2022-09-26T21:43:58.146Z,57.34
2022-09-26T21:47:00.182Z,57.52
2022-09-26T21:50:05.689Z,57.36
2022-09-26T21:53:17.224Z,57.50
2022-09-26T21:56:27.290Z,57.46
2022-09-26T21:59:30.521Z,57.44
2022-09-26T22:02:32.728Z,57.41
2022-09-26T22:05:34.885Z,57.67
2022-09-26T22:08:37.857Z,57.56
2022-09-26T22:11:40.292Z,57.22
2022-09-26T22:14:42.624Z,57.01
2022-09-26T22:17:44.929Z,57.22
2022-09-26T22:20:46.917Z,57.57
2022-09-26T22:23:50.539Z,57.94
2022-09-26T22:26:52.755Z,57.91
2022-09-26T22:29:54.906Z,58.06
2022-09-26T22:32:57.523Z,57.64
2022-09-26T22:35:59.953Z,57.83
2022-09-26T22:39:02.112Z,57.94
2022-09-26T22:42:04.353Z,58.22
2022-09-26T22:45:06.914Z,58.32
2022-09-26T22:48:08.903Z,58.71
2022-09-26T22:51:11.053Z,58.35
2022-09-26T22:54:13.040Z,58.33
2022-09-26T22:57:16.665Z,58.18
2022-09-26T23:00:18.770Z,58.19
2022-09-26T23:03:20.735Z,58.44
2022-09-26T23:06:24.048Z,58.16
2022-09-26T23:09:26.158Z,58.02
2022-09-26T23:12:28.156Z,59.22
2022-09-26T23:15:30.877Z,58.51
2022-09-26T23:18:34.791Z,58.20
2022-09-26T23:21:36.787Z,59.04
2022-09-26T23:24:38.751Z,59.22
2022-09-26T23:27:40.720Z,59.70
2022-09-26T23:30:43.964Z,59.63
2022-09-26T23:33:46.495Z,59.55
2022-09-26T23:36:48.810Z,59.58
2022-09-26T23:39:50.798Z,59.95
2022-09-26T23:42:52.838Z,60.22
2022-09-26T23:45:55.314Z,60.17
2022-09-26T23:48:57.425Z,60.07
2022-09-26T23:51:59.547Z,59.38
2022-09-26T23:55:01.550Z,59.36
2022-09-26T23:58:04.033Z,59.27
